createdAt,value
2018-07-02T00:00:36.808Z,39.54
2018-07-02T00:01:36.939Z,39.54
2018-07-02T00:02:36.830Z,39.64
2018-07-02T00:03:36.779Z,39.64
2018-07-02T00:04:36.783Z,39.54
2018-07-02T00:05:36.775Z,39.54
2018-07-02T00:06:36.763Z,39.83
2018-07-02T00:07:36.789Z,39.93
2018-07-02T00:08:36.749Z,40.12
2018-07-02T00:09:36.729Z,39.83
2018-07-02T00:10:36.746Z,40.31
2018-07-02T00:11:36.731Z,39.93
2018-07-02T00:12:36.784Z,40.02
2018-07-02T00:13:36.941Z,40.12
2018-07-02T00:14:36.705Z,39.93
2018-07-02T00:15:36.695Z,40.02
2018-07-02T00:16:36.685Z,39.83
2018-07-02T00:17:36.677Z,40.31
2018-07-02T00:18:36.732Z,40.31
2018-07-02T00:19:36.646Z,40.31
2018-07-02T00:20:36.662Z,39.93
2018-07-02T00:21:36.649Z,40.02
2018-07-02T00:22:36.630Z,39.73
2018-07-02T00:23:36.629Z,40.22
2018-07-02T00:24:36.653Z,39.64
2018-07-02T00:25:36.602Z,40.31
2018-07-02T00:26:49.637Z,40.22
2018-07-02T00:27:36.576Z,39.93
2018-07-02T00:28:36.579Z,39.83
2018-07-02T00:29:36.937Z,40.02
2018-07-02T00:30:36.563Z,40.02
2018-07-02T00:31:36.575Z,40.31
2018-07-02T00:32:36.593Z,39.73
2018-07-02T00:33:36.542Z,40.50
2018-07-02T00:34:36.534Z,40.41
2018-07-02T00:35:48.577Z,40.31
2018-07-02T00:36:36.532Z,40.02
2018-07-02T00:37:36.503Z,40.02
2018-07-02T00:38:36.501Z,39.93
2018-07-02T00:39:36.519Z,40.02
2018-07-02T00:40:36.480Z,40.02
2018-07-02T00:41:37.335Z,39.64
2018-07-02T00:42:36.469Z,40.12
2018-07-02T00:43:36.453Z,40.31
2018-07-02T00:44:45.846Z,40.02
2018-07-02T00:45:36.437Z,40.12
2018-07-02T00:46:36.496Z,40.02
2018-07-02T00:47:36.426Z,39.73
2018-07-02T00:48:36.429Z,40.02
2018-07-02T00:49:36.409Z,40.22
2018-07-02T00:50:57.672Z,40.12
2018-07-02T00:51:36.390Z,40.22
2018-07-02T00:52:36.381Z,40.89
2018-07-02T00:53:36.362Z,40.60
2018-07-02T00:56:19.963Z,40.31
2018-07-02T00:57:17.920Z,40.41
2018-07-02T00:58:17.900Z,40.89
2018-07-02T00:59:17.896Z,40.50
2018-07-02T01:06:20.597Z,40.70
2018-07-02T01:07:20.415Z,40.48
2018-07-02T01:10:10.740Z,40.89
2018-07-02T01:11:18.758Z,40.70
2018-07-02T01:12:10.547Z,40.29
2018-07-02T01:13:10.565Z,40.60
2018-07-02T01:14:10.564Z,40.50
2018-07-02T01:15:10.507Z,40.50
2018-07-02T01:16:10.592Z,40.50
2018-07-02T01:17:10.497Z,40.67
2018-07-02T01:18:10.628Z,40.60
2018-07-02T01:19:10.485Z,40.96
2018-07-02T01:20:10.477Z,40.70
2018-07-02T01:21:10.462Z,40.39
2018-07-02T01:22:10.676Z,41.16
2018-07-02T01:23:10.447Z,41.06
2018-07-02T01:24:11.647Z,40.77
2018-07-02T01:25:10.434Z,40.96
2018-07-02T01:26:10.420Z,40.67
2018-07-02T01:27:10.416Z,41.35
2018-07-02T01:28:10.401Z,41.25
2018-07-02T01:29:10.385Z,41.16
2018-07-02T01:30:10.388Z,41.35
2018-07-02T01:31:10.376Z,41.25
2018-07-02T01:32:10.356Z,41.44
2018-07-02T01:33:10.354Z,41.63
2018-07-02T01:34:10.352Z,41.73
2018-07-02T01:35:10.369Z,41.73
2018-07-02T01:36:10.327Z,41.63
2018-07-02T01:37:10.342Z,41.63
2018-07-02T01:38:10.662Z,41.73
2018-07-02T01:39:10.312Z,42.11
2018-07-02T01:40:10.292Z,42.21
2018-07-02T01:41:10.281Z,42.11
2018-07-02T01:42:10.289Z,42.40
2018-07-02T01:43:10.285Z,42.50
2018-07-02T01:44:20.643Z,42.30
2018-07-02T01:45:10.253Z,42.21
2018-07-02T01:46:10.243Z,42.00
2018-07-02T01:47:10.223Z,42.10
2018-07-02T01:48:10.308Z,42.29
2018-07-02T01:49:21.376Z,42.29
2018-07-02T01:50:10.209Z,42.19
2018-07-02T01:51:10.232Z,42.00
2018-07-02T01:52:10.199Z,41.83
2018-07-02T01:53:10.240Z,41.80
2018-07-02T01:54:10.201Z,42.19
2018-07-02T01:55:10.160Z,42.10
2018-07-02T01:56:10.161Z,42.10
2018-07-02T01:57:10.813Z,42.38
2018-07-02T01:58:10.140Z,42.10
2018-07-02T01:59:10.119Z,42.57
2018-07-02T02:00:11.083Z,42.67
2018-07-02T02:01:10.147Z,43.15
2018-07-02T02:02:10.099Z,43.27
2018-07-02T02:04:37.143Z,43.05
2018-07-02T02:04:52.321Z,43.05
2018-07-02T02:05:49.891Z,42.96
2018-07-02T02:06:37.658Z,42.96
2018-07-02T02:08:04.971Z,43.07
2018-07-02T02:08:37.603Z,43.34
2018-07-02T02:09:37.609Z,43.91
2018-07-02T02:12:05.488Z,43.73
2018-07-02T02:12:33.020Z,43.63
2018-07-02T02:13:05.968Z,43.73
2018-07-02T02:14:05.952Z,43.24
2018-07-02T02:15:05.945Z,43.15
2018-07-02T02:16:05.970Z,43.34
2018-07-02T02:17:06.248Z,43.24
2018-07-02T02:18:06.352Z,43.15
2018-07-02T02:19:05.920Z,43.74
2018-07-02T02:20:05.903Z,43.73
2018-07-02T02:21:05.920Z,43.53
2018-07-02T02:22:05.885Z,43.73
2018-07-02T02:25:01.626Z,44.59
2018-07-02T02:25:52.586Z,43.82
2018-07-02T02:26:52.923Z,44.49
2018-07-02T02:27:52.547Z,43.73
2018-07-02T02:30:52.875Z,44.20
2018-07-02T02:31:49.854Z,44.01
2018-07-02T02:32:50.188Z,43.73
2018-07-02T02:33:49.900Z,43.63
2018-07-02T02:34:49.830Z,43.34
2018-07-02T02:35:49.870Z,44.01
2018-07-02T02:36:49.812Z,43.82
2018-07-02T02:37:49.807Z,43.82
2018-07-02T02:38:50.067Z,43.82
2018-07-02T02:39:50.038Z,44.01
2018-07-02T02:40:49.803Z,43.73
2018-07-02T02:41:49.766Z,43.82
2018-07-02T02:42:50.771Z,43.63
2018-07-02T02:43:49.770Z,44.01
2018-07-02T02:44:50.621Z,43.82
2018-07-02T02:45:49.758Z,43.63
2018-07-02T02:46:50.293Z,43.73
2018-07-02T02:47:49.698Z,43.53
2018-07-02T02:48:49.704Z,43.63
2018-07-02T02:49:49.692Z,43.82
2018-07-02T02:50:49.709Z,43.63
2018-07-02T02:51:49.674Z,43.73
2018-07-02T02:52:49.660Z,43.53
2018-07-02T02:53:49.653Z,43.63
2018-07-02T02:54:49.642Z,43.73
2018-07-02T02:55:49.665Z,43.53
2018-07-02T02:56:49.657Z,43.53
2018-07-02T02:57:49.619Z,43.63
2018-07-02T02:58:49.603Z,43.53
2018-07-02T02:59:49.595Z,43.53
2018-07-02T03:00:49.594Z,44.11
2018-07-02T03:01:49.651Z,43.82
2018-07-02T03:02:49.565Z,43.91
2018-07-02T03:03:49.592Z,44.01
2018-07-02T03:04:49.560Z,43.90
2018-07-02T03:05:49.549Z,44.09
2018-07-02T03:06:49.530Z,44.27
2018-07-02T03:07:49.529Z,43.99
2018-07-02T03:08:49.526Z,44.47
2018-07-02T03:09:49.548Z,44.27
2018-07-02T03:10:49.509Z,44.30
2018-07-02T03:11:49.544Z,43.70
2018-07-02T03:12:49.487Z,44.37
2018-07-02T03:13:49.474Z,44.37
2018-07-02T03:14:49.466Z,43.70
2018-07-02T03:15:49.450Z,43.51
2018-07-02T03:16:49.447Z,43.80
2018-07-02T03:17:49.663Z,44.09
2018-07-02T03:18:49.423Z,44.27
2018-07-02T03:19:49.411Z,44.18
2018-07-02T03:20:49.400Z,44.09
2018-07-02T03:21:49.400Z,43.80
2018-07-02T03:22:49.414Z,44.27
2018-07-02T03:23:49.463Z,43.70
2018-07-02T03:24:57.155Z,43.70
2018-07-02T03:25:49.359Z,44.37
2018-07-02T03:26:49.345Z,44.37
2018-07-02T03:27:49.367Z,44.47
2018-07-02T03:28:49.327Z,44.27
2018-07-02T03:29:49.326Z,44.27
2018-07-02T03:30:49.315Z,44.47
2018-07-02T03:31:49.314Z,44.47
2018-07-02T03:32:49.324Z,43.99
2018-07-02T03:33:49.362Z,44.09
2018-07-02T03:34:49.273Z,44.18
2018-07-02T03:35:49.287Z,44.27
2018-07-02T03:36:49.255Z,44.27
2018-07-02T03:37:49.245Z,43.60
2018-07-02T03:38:50.620Z,43.99
2018-07-02T03:39:49.233Z,43.80
2018-07-02T03:40:49.251Z,43.70
2018-07-02T03:41:49.216Z,44.37
2018-07-02T03:42:49.200Z,44.37
2018-07-02T03:43:49.193Z,44.47
2018-07-02T03:44:49.194Z,44.27
2018-07-02T03:45:49.314Z,44.37
2018-07-02T03:46:49.683Z,44.47
2018-07-02T03:47:49.159Z,43.99
2018-07-02T03:48:49.474Z,44.37
2018-07-02T03:49:49.132Z,44.09
2018-07-02T03:50:49.131Z,44.85
2018-07-02T03:51:49.119Z,44.37
2018-07-02T03:52:49.106Z,44.76
2018-07-02T03:53:49.110Z,44.66
2018-07-02T03:54:49.086Z,44.66
2018-07-02T03:55:49.095Z,44.85
2018-07-02T03:56:49.098Z,44.56
2018-07-02T03:57:49.067Z,44.85
2018-07-02T03:58:49.067Z,44.66
2018-07-02T03:59:49.052Z,44.76
2018-07-02T04:00:49.039Z,44.85
2018-07-02T04:01:49.074Z,44.56
2018-07-02T04:02:49.020Z,44.66
2018-07-02T04:03:49.002Z,44.76
2018-07-02T04:04:49.039Z,44.37
2018-07-02T04:05:48.998Z,44.66
2018-07-02T04:06:48.988Z,44.56
2018-07-02T04:07:48.971Z,44.37
2018-07-02T04:08:49.024Z,44.66
2018-07-02T04:09:48.956Z,44.76
2018-07-02T04:10:48.955Z,44.76
2018-07-02T04:11:48.947Z,44.47
2018-07-02T04:12:48.929Z,44.56
2018-07-02T04:13:48.922Z,44.56
2018-07-02T04:14:49.846Z,44.85
2018-07-02T04:15:48.911Z,45.04
2018-07-02T04:16:48.891Z,45.23
2018-07-02T04:17:48.872Z,45.14
2018-07-02T04:18:49.120Z,45.14
2018-07-02T04:19:48.861Z,45.33
2018-07-02T04:20:48.880Z,45.43
2018-07-02T04:21:48.841Z,44.85
2018-07-02T04:22:48.840Z,44.95
2018-07-02T04:23:48.830Z,44.85
2018-07-02T04:24:48.817Z,44.95
2018-07-02T04:25:48.999Z,44.66
2018-07-02T04:26:48.801Z,44.18
2018-07-02T04:27:48.779Z,44.47
2018-07-02T04:28:48.788Z,44.47
2018-07-02T04:29:48.767Z,44.37
2018-07-02T04:30:48.759Z,44.37
2018-07-02T04:31:48.755Z,44.27
2018-07-02T04:32:48.744Z,44.49
2018-07-02T04:33:48.728Z,44.87
2018-07-02T04:34:48.727Z,44.68
2018-07-02T04:35:48.745Z,44.59
2018-07-02T04:36:48.697Z,44.78
2018-07-02T04:37:48.721Z,44.78
2018-07-02T04:38:48.690Z,44.18
2018-07-02T04:39:48.682Z,44.18
2018-07-02T04:40:48.662Z,44.59
2018-07-02T04:41:48.651Z,44.40
2018-07-02T04:42:48.688Z,44.40
2018-07-02T04:43:48.645Z,44.66
2018-07-02T04:44:48.672Z,45.16
2018-07-02T04:45:48.632Z,44.95
2018-07-02T04:46:48.613Z,44.97
2018-07-02T04:47:48.604Z,45.16
2018-07-02T04:48:48.625Z,44.78
2018-07-02T04:49:48.585Z,45.45
2018-07-02T04:50:48.580Z,45.07
2018-07-02T04:51:48.572Z,45.45
2018-07-02T04:52:48.589Z,45.54
2018-07-02T04:53:48.700Z,45.93
2018-07-02T04:54:48.546Z,45.54
2018-07-02T04:55:48.534Z,45.16
2018-07-02T04:56:48.531Z,45.36
2018-07-02T04:57:48.524Z,45.36
2018-07-02T04:58:48.540Z,46.70
2018-07-02T04:59:48.548Z,45.93
2018-07-02T05:00:48.489Z,45.93
2018-07-02T05:01:48.475Z,46.60
2018-07-02T05:02:48.478Z,46.79
2018-07-02T05:03:48.465Z,46.79
2018-07-02T05:04:48.484Z,46.98
2018-07-02T05:05:48.450Z,46.98
2018-07-02T05:06:48.436Z,47.27
2018-07-02T05:07:48.434Z,47.08
2018-07-02T05:08:48.421Z,46.89
2018-07-02T05:09:48.449Z,47.56
2018-07-02T05:10:48.447Z,47.75
2018-07-02T05:11:48.395Z,48.13
2018-07-02T05:12:48.391Z,47.94
2018-07-02T05:13:48.375Z,47.56
2018-07-02T05:14:48.356Z,47.66
2018-07-02T05:15:48.353Z,47.94
2018-07-02T05:16:48.355Z,47.66
2018-07-02T05:17:48.354Z,47.56
2018-07-02T05:18:48.326Z,47.08
2018-07-02T05:19:48.322Z,46.98
2018-07-02T05:20:48.318Z,46.50
2018-07-02T05:21:48.450Z,46.70
2018-07-02T05:22:48.298Z,46.70
2018-07-02T05:23:48.291Z,46.50
2018-07-02T05:24:48.270Z,46.79
2018-07-02T05:25:48.393Z,47.17
2018-07-02T05:26:48.263Z,47.27
2018-07-02T05:27:48.295Z,47.66
2018-07-02T05:28:48.242Z,47.46
2018-07-02T05:29:48.229Z,47.17
2018-07-02T05:30:48.217Z,47.94
2018-07-02T05:31:48.214Z,47.75
2018-07-02T05:32:48.238Z,47.85
2018-07-02T05:33:48.209Z,47.66
2018-07-02T05:34:48.204Z,48.04
2018-07-02T05:35:48.185Z,48.52
2018-07-02T05:36:48.177Z,48.52
2018-07-02T05:37:48.165Z,48.71
2018-07-02T05:38:48.357Z,48.52
2018-07-02T05:39:48.149Z,48.93
2018-07-02T05:40:48.147Z,49.00
2018-07-02T05:41:48.126Z,48.80
2018-07-02T05:42:48.161Z,49.21
2018-07-02T05:43:48.120Z,48.23
2018-07-02T05:44:48.094Z,48.44
2018-07-02T05:45:50.712Z,47.77
2018-07-02T05:46:48.085Z,48.07
2018-07-02T05:47:48.082Z,48.07
2018-07-02T05:48:48.283Z,48.54
2018-07-02T05:49:48.063Z,49.02
2018-07-02T05:50:48.047Z,48.35
2018-07-02T05:51:48.042Z,48.54
2018-07-02T05:52:48.026Z,48.83
2018-07-02T05:53:48.071Z,49.21
2018-07-02T05:54:48.024Z,48.54
2018-07-02T05:55:48.014Z,48.44
2018-07-02T05:56:48.003Z,48.93
2018-07-02T05:57:48.073Z,48.93
2018-07-02T05:58:47.987Z,48.44
2018-07-02T05:59:47.980Z,48.93
2018-07-02T06:00:48.040Z,48.93
2018-07-02T06:01:47.965Z,49.21
2018-07-02T06:02:47.954Z,48.44
2018-07-02T06:03:47.948Z,48.64
2018-07-02T06:04:47.932Z,48.44
2018-07-02T06:05:47.923Z,48.54
2018-07-02T06:06:47.921Z,48.83
2018-07-02T06:07:47.964Z,48.93
2018-07-02T06:08:49.210Z,49.60
2018-07-02T06:09:47.921Z,48.93
2018-07-02T06:10:47.886Z,49.12
2018-07-02T06:11:47.864Z,48.93
2018-07-02T06:12:48.050Z,49.12
2018-07-02T06:13:47.859Z,48.57
2018-07-02T06:14:47.899Z,48.47
2018-07-02T06:15:47.838Z,49.21
2018-07-02T06:16:47.833Z,49.52
2018-07-02T06:17:47.823Z,49.52
2018-07-02T06:18:47.817Z,49.02
2018-07-02T06:19:47.808Z,48.85
2018-07-02T06:20:47.825Z,49.43
2018-07-02T06:21:47.787Z,49.62
2018-07-02T06:22:47.785Z,49.43
2018-07-02T06:23:47.775Z,49.15
2018-07-02T06:24:47.830Z,48.66
2018-07-02T06:25:47.762Z,48.85
2018-07-02T06:26:47.780Z,49.72
2018-07-02T06:27:47.741Z,49.33
2018-07-02T06:28:47.729Z,49.15
2018-07-02T06:29:49.735Z,49.33
2018-07-02T06:30:47.712Z,48.76
2018-07-02T06:31:47.706Z,49.24
2018-07-02T06:32:47.699Z,49.24
2018-07-02T06:33:47.690Z,49.43
2018-07-02T06:34:47.691Z,49.82
2018-07-02T06:35:47.684Z,49.15
2018-07-02T06:36:47.666Z,48.88
2018-07-02T06:37:47.670Z,49.15
2018-07-02T06:38:47.676Z,48.85
2018-07-02T06:39:47.635Z,49.24
2018-07-02T06:40:47.629Z,48.85
2018-07-02T06:41:47.633Z,48.97
2018-07-02T06:42:47.625Z,49.26
2018-07-02T06:43:47.625Z,49.07
2018-07-02T06:44:47.594Z,48.88
2018-07-02T06:45:47.594Z,48.79
2018-07-02T06:46:47.610Z,49.07
2018-07-02T06:47:47.588Z,48.97
2018-07-02T06:48:47.933Z,49.07
2018-07-02T06:49:47.565Z,49.55
2018-07-02T06:50:47.560Z,49.46
2018-07-02T06:51:47.538Z,49.55
2018-07-02T06:52:47.575Z,49.93
2018-07-02T06:53:47.525Z,48.88
2018-07-02T06:54:47.886Z,48.81
2018-07-02T06:55:47.522Z,49.07
2018-07-02T06:56:47.513Z,49.29
2018-07-02T06:57:47.504Z,48.71
2018-07-02T06:58:47.550Z,48.61
2018-07-02T06:59:47.486Z,48.43
2018-07-02T07:00:47.491Z,48.13
2018-07-02T07:01:47.498Z,48.43
2018-07-02T07:02:47.458Z,48.13
2018-07-02T07:03:47.450Z,47.94
2018-07-02T07:04:47.451Z,47.75
2018-07-02T07:05:47.466Z,47.85
2018-07-02T07:06:47.498Z,48.04
2018-07-02T07:07:47.424Z,47.85
2018-07-02T07:08:47.413Z,48.04
2018-07-02T07:09:47.496Z,48.04
2018-07-02T07:10:48.432Z,47.94
2018-07-02T07:11:47.450Z,47.85
2018-07-02T07:12:47.381Z,48.04
2018-07-02T07:13:47.732Z,48.04
2018-07-02T07:14:47.382Z,48.04
2018-07-02T07:15:47.383Z,48.33
2018-07-02T07:16:47.362Z,48.81
2018-07-02T07:17:47.351Z,48.90
2018-07-02T07:18:47.335Z,47.94
2018-07-02T07:19:47.379Z,47.94
2018-07-02T07:20:47.335Z,47.75
2018-07-02T07:21:47.333Z,47.85
2018-07-02T07:22:47.342Z,47.85
2018-07-02T07:23:47.317Z,47.94
2018-07-02T07:24:47.295Z,47.94
2018-07-02T07:25:47.309Z,48.43
2018-07-02T07:26:47.283Z,48.81
2018-07-02T07:27:47.628Z,48.13
2018-07-02T07:28:47.279Z,48.33
2018-07-02T07:29:47.262Z,48.52
2018-07-02T07:30:48.763Z,48.23
2018-07-02T07:31:47.328Z,49.00
2018-07-02T07:32:47.326Z,48.81
2018-07-02T07:33:47.297Z,48.81
2018-07-02T07:34:47.214Z,48.81
2018-07-02T07:35:47.226Z,48.23
2018-07-02T07:36:47.217Z,49.10
2018-07-02T07:37:47.464Z,49.10
2018-07-02T07:38:47.201Z,49.29
2018-07-02T07:39:47.295Z,49.12
2018-07-02T07:40:47.176Z,48.93
2018-07-02T07:41:47.198Z,48.64
2018-07-02T07:42:47.183Z,48.16
2018-07-02T07:43:47.159Z,47.97
2018-07-02T07:44:47.219Z,47.85
2018-07-02T07:45:47.144Z,47.87
2018-07-02T07:46:47.133Z,47.77
2018-07-02T07:47:47.124Z,49.02
2018-07-02T07:48:47.117Z,49.31
2018-07-02T07:49:47.153Z,48.74
2018-07-02T07:50:47.101Z,48.35
2018-07-02T07:51:47.100Z,48.16
2018-07-02T07:52:47.076Z,47.87
2018-07-02T07:53:47.074Z,47.49
2018-07-02T07:54:47.801Z,47.68
2018-07-02T07:55:47.078Z,47.87
2018-07-02T07:56:47.069Z,47.77
2018-07-02T07:57:47.067Z,47.77
2018-07-02T07:58:47.263Z,48.07
2018-07-02T07:59:47.034Z,48.45
2018-07-02T08:00:47.062Z,47.87
2018-07-02T08:01:47.016Z,48.07
2018-07-02T08:02:47.012Z,47.77
2018-07-02T08:03:47.009Z,47.70
2018-07-02T08:04:47.003Z,47.58
2018-07-02T08:05:47.810Z,47.39
2018-07-02T08:06:46.987Z,46.81
2018-07-02T08:07:47.021Z,46.81
2018-07-02T08:08:47.045Z,47.10
2018-07-02T08:09:46.970Z,47.10
2018-07-02T08:10:47.097Z,46.84
2018-07-02T08:11:46.953Z,46.84
2018-07-02T08:12:46.945Z,47.03
2018-07-02T08:13:46.952Z,47.22
2018-07-02T08:14:46.960Z,47.03
2018-07-02T08:15:47.066Z,46.93
2018-07-02T08:16:46.946Z,46.93
2018-07-02T08:17:46.913Z,46.74
2018-07-02T08:18:46.945Z,46.55
2018-07-02T08:19:46.914Z,46.84
2018-07-02T08:20:48.328Z,46.64
2018-07-02T08:21:46.894Z,45.20
2018-07-02T08:22:46.877Z,46.06
2018-07-02T08:23:46.897Z,46.06
2018-07-02T08:24:46.864Z,46.36
2018-07-02T08:25:46.849Z,46.16
2018-07-02T08:26:46.874Z,46.26
2018-07-02T08:27:53.884Z,46.45
2018-07-02T08:28:46.884Z,46.47
2018-07-02T08:29:46.825Z,46.28
2018-07-02T08:30:46.845Z,46.09
2018-07-02T08:31:46.825Z,46.19
2018-07-02T08:32:46.841Z,46.77
2018-07-02T08:33:46.809Z,46.77
2018-07-02T08:34:46.838Z,46.40
2018-07-02T08:35:46.795Z,45.15
2018-07-02T08:36:46.787Z,45.25
2018-07-02T08:37:46.776Z,46.14
2018-07-02T08:38:46.775Z,45.75
2018-07-02T08:39:46.797Z,45.48
2018-07-02T08:40:46.874Z,45.00
2018-07-02T08:41:46.843Z,44.81
2018-07-02T08:42:46.750Z,43.94
2018-07-02T08:43:46.751Z,43.94
2018-07-02T08:44:46.752Z,42.79
2018-07-02T08:45:46.827Z,42.40
2018-07-02T08:46:46.775Z,42.40
2018-07-02T08:47:46.735Z,43.19
2018-07-02T08:48:46.787Z,43.50
2018-07-02T08:49:46.721Z,41.86
2018-07-02T08:50:46.771Z,41.40
2018-07-02T08:51:46.731Z,40.34
2018-07-02T08:52:46.820Z,41.13
2018-07-02T08:53:46.721Z,40.28
2018-07-02T08:54:46.724Z,39.90
2018-07-02T08:55:46.718Z,38.76
2018-07-02T08:56:46.754Z,36.94
2018-07-02T08:57:46.714Z,36.84
2018-07-02T08:58:46.719Z,36.57
2018-07-02T08:59:46.708Z,36.58
2018-07-02T09:00:46.724Z,36.22
2018-07-02T09:01:46.721Z,37.48
2018-07-02T09:02:46.739Z,36.64
2018-07-02T09:03:46.714Z,34.31
2018-07-02T09:04:46.717Z,34.62
2018-07-02T09:05:46.725Z,34.16
2018-07-02T09:06:46.734Z,34.46
2018-07-02T09:07:46.723Z,31.27
2018-07-02T09:08:46.782Z,31.55
2018-07-02T09:09:46.731Z,30.40
2018-07-02T09:10:46.721Z,31.47
2018-07-02T09:11:46.732Z,31.37
2018-07-02T09:12:46.737Z,30.11
2018-07-02T09:13:46.868Z,29.62
2018-07-02T09:14:46.771Z,29.52
2018-07-02T09:15:46.746Z,29.83
2018-07-02T09:16:46.752Z,30.22
2018-07-02T09:17:46.796Z,29.35
2018-07-02T09:18:46.790Z,29.16
2018-07-02T09:19:46.768Z,29.46
2018-07-02T09:20:46.779Z,30.54
2018-07-02T09:21:46.763Z,29.68
2018-07-02T09:22:46.780Z,28.43
2018-07-02T09:23:46.911Z,28.92
2018-07-02T09:24:46.789Z,28.74
2018-07-02T09:25:46.812Z,28.07
2018-07-02T09:26:48.344Z,26.02
2018-07-02T09:27:46.801Z,26.21
2018-07-02T09:28:47.289Z,27.78
2018-07-02T09:29:46.822Z,28.28
2018-07-02T09:30:46.830Z,25.54
2018-07-02T09:31:46.826Z,26.91
2018-07-02T09:32:46.831Z,24.77
2018-07-02T09:33:46.873Z,23.78
2018-07-02T09:34:46.844Z,25.23
2018-07-02T09:35:46.857Z,26.59
2018-07-02T09:36:47.841Z,27.29
2018-07-02T09:37:46.864Z,26.70
2018-07-02T09:39:09.893Z,27.01
2018-07-02T09:39:46.872Z,23.21
2018-07-02T09:40:46.890Z,23.99
2018-07-02T09:41:46.918Z,24.49
2018-07-02T09:42:46.905Z,24.29
2018-07-02T09:43:46.909Z,24.50
2018-07-02T09:44:48.342Z,24.90
2018-07-02T09:45:46.962Z,26.18
2018-07-02T09:46:47.114Z,26.50
2018-07-02T09:47:46.945Z,24.54
2018-07-02T09:48:46.949Z,24.85
2018-07-02T09:49:46.949Z,24.85
2018-07-02T09:50:47.001Z,25.26
2018-07-02T09:51:46.972Z,23.99
2018-07-02T09:52:46.974Z,22.34
2018-07-02T09:53:46.976Z,22.63
2018-07-02T09:54:46.991Z,23.43
2018-07-02T09:55:47.155Z,20.99
2018-07-02T09:56:47.027Z,20.79
2018-07-02T09:57:48.855Z,20.20
2018-07-02T09:58:47.030Z,18.52
2018-07-02T09:59:47.053Z,18.51
2018-07-02T10:00:47.048Z,20.17
2018-07-02T10:01:47.082Z,20.66
2018-07-02T10:02:47.055Z,21.85
2018-07-02T10:03:47.104Z,22.55
2018-07-02T10:04:47.085Z,23.35
2018-07-02T10:05:47.425Z,23.38
2018-07-02T10:06:47.103Z,23.09
2018-07-02T10:07:47.101Z,21.43
2018-07-02T10:08:47.115Z,21.53
2018-07-02T10:09:47.133Z,22.03
2018-07-02T10:10:47.167Z,22.53
2018-07-02T10:11:47.151Z,22.45
2018-07-02T10:12:47.157Z,22.66
2018-07-02T10:13:47.166Z,21.08
2018-07-02T10:15:14.865Z,19.40
2018-07-02T10:15:47.234Z,19.59
2018-07-02T10:16:47.849Z,19.40
2018-07-02T10:17:47.196Z,19.29
2018-07-02T10:18:47.211Z,18.39
2018-07-02T10:19:47.219Z,19.66
2018-07-02T10:20:47.252Z,19.75
2018-07-02T10:21:47.239Z,20.64
2018-07-02T10:22:47.238Z,20.35
2018-07-02T10:23:47.286Z,21.15
2018-07-02T10:24:47.257Z,21.55
2018-07-02T10:25:47.285Z,20.97
2018-07-02T10:26:47.323Z,17.02
2018-07-02T10:27:47.290Z,16.52
2018-07-02T10:28:47.288Z,17.69
2018-07-02T10:29:47.298Z,16.61
2018-07-02T10:30:47.348Z,16.30
2018-07-02T10:31:47.336Z,17.86
2018-07-02T10:32:47.328Z,18.37
2018-07-02T10:33:47.401Z,18.37
2018-07-02T10:34:48.520Z,19.06
2018-07-02T10:35:47.358Z,19.37
2018-07-02T10:36:47.378Z,18.98
2018-07-02T10:37:47.395Z,18.80
2018-07-02T10:38:47.402Z,17.92
2018-07-02T10:39:47.429Z,17.43
2018-07-02T10:40:47.423Z,18.21
2018-07-02T10:41:47.463Z,18.32
2018-07-02T10:42:47.433Z,18.23
2018-07-02T10:43:47.447Z,17.35
2018-07-02T10:44:48.397Z,18.54
2018-07-02T10:45:47.470Z,18.25
2018-07-02T10:46:48.688Z,17.07
2018-07-02T10:47:47.472Z,17.66
2018-07-02T10:48:47.491Z,17.96
2018-07-02T10:49:47.503Z,17.97
2018-07-02T10:50:47.501Z,18.18
2018-07-02T10:51:47.551Z,18.87
2018-07-02T10:52:47.530Z,19.07
2018-07-02T10:53:47.899Z,15.91
2018-07-02T10:54:47.782Z,15.51
2018-07-02T10:55:47.624Z,16.50
2018-07-02T10:56:47.629Z,17.49
2018-07-02T10:57:47.585Z,17.49
2018-07-02T10:58:48.909Z,16.50
2018-07-02T10:59:47.616Z,17.49
2018-07-02T11:00:47.623Z,17.49
2018-07-02T11:01:47.626Z,16.31
2018-07-02T11:02:48.410Z,17.40
2018-07-02T11:03:49.386Z,18.29
2018-07-02T11:04:47.671Z,18.59
2018-07-02T11:05:47.668Z,18.10
2018-07-02T11:06:48.413Z,17.40
2018-07-02T11:07:47.683Z,17.29
2018-07-02T11:08:49.405Z,18.17
2018-07-02T11:09:50.028Z,19.15
2018-07-02T11:10:47.733Z,17.76
2018-07-02T11:11:47.756Z,19.02
2018-07-02T11:12:47.746Z,18.52
2018-07-02T11:13:47.757Z,17.23
2018-07-02T11:14:47.896Z,17.32
2018-07-02T11:15:47.924Z,16.23
2018-07-02T11:16:47.797Z,15.73
2018-07-02T11:17:47.799Z,16.71
2018-07-02T11:18:47.795Z,17.79
2018-07-02T11:19:47.808Z,18.79
2018-07-02T11:20:47.825Z,19.38
2018-07-02T11:21:47.982Z,18.90
2018-07-02T11:22:47.838Z,17.82
2018-07-02T11:23:47.910Z,18.02
2018-07-02T11:24:47.910Z,17.93
2018-07-02T11:25:47.901Z,18.23
2018-07-02T11:26:48.605Z,18.52
2018-07-02T11:27:47.913Z,18.83
2018-07-02T11:28:47.894Z,19.23
2018-07-02T11:29:47.907Z,18.35
2018-07-02T11:30:48.695Z,17.97
2018-07-02T11:31:47.960Z,18.07
2018-07-02T11:32:47.931Z,18.17
2018-07-02T11:33:47.956Z,17.39
2018-07-02T11:34:47.970Z,17.49
2018-07-02T11:35:48.004Z,15.91
2018-07-02T11:36:48.016Z,14.02
2018-07-02T11:37:47.990Z,15.70
2018-07-02T11:38:48.034Z,16.09
2018-07-02T11:39:48.020Z,16.50
2018-07-02T11:40:48.034Z,16.99
2018-07-02T11:41:48.029Z,17.09
2018-07-02T11:42:48.059Z,14.03
2018-07-02T11:43:48.949Z,15.11
2018-07-02T11:44:49.942Z,15.79
2018-07-02T11:45:48.094Z,16.19
2018-07-02T11:46:48.117Z,16.59
2018-07-02T11:47:48.335Z,17.39
2018-07-02T11:48:48.232Z,17.19
2018-07-02T11:49:48.131Z,17.19
2018-07-02T11:50:48.140Z,16.78
2018-07-02T11:51:48.186Z,16.49
2018-07-02T11:52:48.158Z,16.00
2018-07-02T11:53:48.167Z,15.70
2018-07-02T11:54:48.186Z,15.11
2018-07-02T11:55:48.239Z,16.09
2018-07-02T11:56:48.279Z,16.28
2018-07-02T11:57:48.486Z,17.75
2018-07-02T11:58:48.231Z,17.33
2018-07-02T11:59:48.232Z,16.53
2018-07-02T12:00:48.246Z,17.00
2018-07-02T12:01:48.330Z,17.59
2018-07-02T12:02:48.279Z,18.07
2018-07-02T12:03:48.282Z,18.35
2018-07-02T12:04:48.294Z,18.73
2018-07-02T12:05:48.267Z,19.12
2018-07-02T12:06:48.293Z,19.70
2018-07-02T12:07:48.317Z,19.41
2018-07-02T12:08:48.884Z,19.10
2018-07-02T12:09:48.303Z,19.59
2018-07-02T12:10:48.320Z,19.20
2018-07-02T12:11:48.323Z,17.32
2018-07-02T12:12:48.350Z,17.12
2018-07-02T12:13:48.315Z,17.98
2018-07-02T12:14:48.349Z,18.47
2018-07-02T12:15:48.500Z,18.66
2018-07-02T12:16:48.328Z,18.85
2018-07-02T12:17:48.365Z,18.65
2018-07-02T12:18:48.415Z,19.42
2018-07-02T12:19:48.344Z,19.31
2018-07-02T12:20:48.977Z,19.31
2018-07-02T12:21:48.388Z,19.51
2018-07-02T12:22:48.362Z,19.89
2018-07-02T12:23:48.372Z,19.20
2018-07-02T12:24:48.374Z,19.68
2018-07-02T12:25:48.351Z,20.17
2018-07-02T12:26:48.368Z,20.66
2018-07-02T12:27:49.658Z,21.04
2018-07-02T12:28:48.370Z,20.84
2018-07-02T12:29:48.416Z,21.04
2018-07-02T12:31:55.495Z,20.35
2018-07-02T12:32:02.471Z,21.12
2018-07-02T12:32:56.027Z,20.83
2018-07-02T12:33:56.020Z,20.73
2018-07-02T12:34:56.015Z,21.60
2018-07-02T12:35:56.028Z,21.80
2018-07-02T12:36:56.024Z,21.89
2018-07-02T12:37:56.014Z,21.70
2018-07-02T12:38:56.028Z,21.50
2018-07-02T12:39:56.062Z,21.50
2018-07-02T12:40:56.032Z,20.51
2018-07-02T12:41:56.108Z,19.73
2018-07-02T12:42:56.050Z,20.31
2018-07-02T12:43:56.039Z,21.18
2018-07-02T12:44:56.142Z,20.40
2018-07-02T12:45:57.071Z,21.18
2018-07-02T12:46:56.033Z,20.98
2018-07-02T12:47:56.074Z,20.31
2018-07-02T12:48:56.034Z,21.27
2018-07-02T12:49:56.038Z,21.56
2018-07-02T12:50:56.029Z,21.56
2018-07-02T12:51:56.038Z,21.85
2018-07-02T12:52:56.079Z,21.95
2018-07-02T12:53:56.103Z,21.27
2018-07-02T12:54:56.045Z,19.62
2018-07-02T12:55:56.047Z,20.10
2018-07-02T12:56:56.043Z,20.68
2018-07-02T12:57:56.039Z,20.68
2018-07-02T12:58:56.071Z,20.58
2018-07-02T12:59:56.188Z,21.06
2018-07-02T13:00:57.051Z,21.75
2018-07-02T13:01:56.025Z,21.94
2018-07-02T13:02:56.068Z,21.65
2018-07-02T13:03:56.036Z,21.55
2018-07-02T13:04:56.100Z,21.75
2018-07-02T13:05:56.074Z,22.03
2018-07-02T13:06:56.016Z,22.03